createdAt,value
2023-05-02T00:00:46.654Z,98.07
2023-05-02T00:01:46.773Z,98.07
2023-05-02T00:02:46.946Z,97.97
2023-05-02T00:03:46.160Z,98.07
2023-05-02T00:04:46.040Z,98.18
2023-05-02T00:05:46.058Z,97.97
2023-05-02T00:06:46.148Z,97.77
2023-05-02T00:07:46.014Z,97.87
2023-05-02T00:08:46.148Z,97.77
2023-05-02T00:09:46.242Z,97.97
2023-05-02T00:10:46.298Z,97.87
2023-05-02T00:11:46.341Z,97.56
2023-05-02T00:12:46.392Z,97.56
2023-05-02T00:13:46.461Z,97.46
2023-05-02T00:14:46.516Z,97.36
2023-05-02T00:15:46.573Z,97.25
2023-05-02T00:16:46.070Z,97.25
2023-05-02T00:17:46.757Z,97.36
2023-05-02T00:18:46.069Z,97.56
2023-05-02T00:19:45.933Z,97.81
2023-05-02T00:20:46.928Z,97.91
2023-05-02T00:21:46.872Z,97.50
2023-05-02T00:22:46.762Z,97.71
2023-05-02T00:23:46.914Z,97.81
2023-05-02T00:24:46.574Z,97.71
2023-05-02T00:25:46.665Z,97.71
2023-05-02T00:26:46.884Z,97.81
2023-05-02T00:27:46.986Z,97.81
2023-05-02T00:28:46.901Z,98.02
2023-05-02T00:29:46.848Z,97.81
2023-05-02T00:30:47.048Z,97.71
2023-05-02T00:31:46.910Z,97.91
2023-05-02T00:32:46.003Z,97.71
2023-05-02T00:33:45.839Z,97.30
2023-05-02T00:34:45.874Z,97.50
2023-05-02T00:35:45.827Z,97.71
2023-05-02T00:36:45.855Z,97.71
2023-05-02T00:37:45.821Z,97.50
2023-05-02T00:38:45.816Z,97.50
2023-05-02T00:39:45.802Z,97.50
2023-05-02T00:40:45.822Z,97.71
2023-05-02T00:41:45.837Z,97.71
2023-05-02T00:42:45.837Z,97.30
2023-05-02T00:43:45.863Z,97.20
2023-05-02T00:44:45.899Z,97.20
2023-05-02T00:45:45.895Z,97.20
2023-05-02T00:46:45.944Z,97.20
2023-05-02T00:47:45.974Z,97.40
2023-05-02T00:48:45.914Z,97.20
2023-05-02T00:49:46.086Z,97.20
2023-05-02T00:50:46.098Z,97.09
2023-05-02T00:51:46.100Z,97.09
2023-05-02T00:52:46.097Z,97.40
2023-05-02T00:53:46.105Z,97.34
2023-05-02T00:54:46.117Z,97.24
2023-05-02T00:55:46.117Z,97.55
2023-05-02T00:56:46.135Z,97.24
2023-05-02T00:57:46.127Z,97.55
2023-05-02T00:58:46.115Z,97.34
2023-05-02T00:59:46.153Z,97.24
2023-05-02T01:00:45.886Z,97.34
2023-05-02T01:01:46.192Z,97.45
2023-05-02T01:02:46.239Z,97.34
2023-05-02T01:03:45.711Z,97.55
2023-05-02T01:04:45.624Z,97.65
2023-05-02T01:05:45.657Z,97.24
2023-05-02T01:06:45.808Z,97.14
2023-05-02T01:07:45.601Z,97.24
2023-05-02T01:08:45.620Z,97.14
2023-05-02T01:09:45.930Z,97.34
2023-05-02T01:10:45.605Z,97.45
2023-05-02T01:11:45.612Z,97.55
2023-05-02T01:12:45.629Z,97.34
2023-05-02T01:13:45.626Z,97.34
2023-05-02T01:14:45.652Z,97.34
2023-05-02T01:15:45.662Z,97.34
2023-05-02T01:16:45.805Z,97.04
2023-05-02T01:17:45.682Z,97.24
2023-05-02T01:18:45.556Z,97.45
2023-05-02T01:19:45.551Z,97.55
2023-05-02T01:20:45.682Z,97.45
2023-05-02T01:21:45.679Z,97.34
2023-05-02T01:22:45.688Z,97.55
2023-05-02T01:23:45.692Z,97.45
2023-05-02T01:24:45.499Z,97.55
2023-05-02T01:25:45.712Z,97.55
2023-05-02T01:26:45.729Z,97.65
2023-05-02T01:27:45.722Z,97.86
2023-05-02T01:28:45.736Z,97.65
2023-05-02T01:29:45.732Z,97.55
2023-05-02T01:30:45.544Z,97.65
2023-05-02T01:31:45.471Z,97.60
2023-05-02T01:32:45.511Z,97.65
2023-05-02T01:33:45.557Z,97.49
2023-05-02T01:34:45.573Z,97.49
2023-05-02T01:35:45.443Z,97.70
2023-05-02T01:36:45.602Z,97.90
2023-05-02T01:37:45.424Z,98.00
2023-05-02T01:38:45.417Z,97.80
2023-05-02T01:39:45.412Z,97.80
2023-05-02T01:40:45.422Z,98.11
2023-05-02T01:41:45.428Z,98.00
2023-05-02T01:42:45.649Z,98.00
2023-05-02T01:43:45.654Z,98.00
2023-05-02T01:44:45.658Z,98.21
2023-05-02T01:45:45.695Z,97.90
2023-05-02T01:46:45.702Z,98.11
2023-05-02T01:47:45.773Z,98.31
2023-05-02T01:48:45.706Z,98.41
2023-05-02T01:49:45.903Z,98.31
2023-05-02T01:50:45.904Z,98.31
2023-05-02T01:51:45.916Z,98.52
2023-05-02T01:52:45.915Z,98.31
2023-05-02T01:53:45.362Z,98.31
2023-05-02T01:54:45.502Z,98.52
2023-05-02T01:55:45.919Z,98.52
2023-05-02T01:56:46.143Z,98.52
2023-05-02T01:57:46.145Z,98.31
2023-05-02T01:58:46.150Z,98.52
2023-05-02T01:59:46.152Z,98.61
2023-05-02T02:00:45.452Z,98.41
2023-05-02T02:01:45.376Z,98.41
2023-05-02T02:02:45.319Z,98.41
2023-05-02T02:03:45.344Z,98.41
2023-05-02T02:04:45.573Z,98.61
2023-05-02T02:05:45.403Z,98.82
2023-05-02T02:06:45.570Z,98.61
2023-05-02T02:07:45.390Z,98.61
2023-05-02T02:08:45.380Z,98.72
2023-05-02T02:09:45.411Z,98.72
2023-05-02T02:10:45.417Z,98.82
2023-05-02T02:11:45.418Z,98.86
2023-05-02T02:12:45.434Z,98.97
2023-05-02T02:13:45.429Z,99.02
2023-05-02T02:14:45.444Z,99.18
2023-05-02T02:15:45.246Z,98.97
2023-05-02T02:16:45.493Z,99.07
2023-05-02T02:17:45.146Z,99.07
2023-05-02T02:18:45.400Z,99.07
2023-05-02T02:19:45.471Z,99.18
2023-05-02T02:20:45.474Z,98.86
2023-05-02T02:21:45.487Z,98.66
2023-05-02T02:22:45.116Z,98.77
2023-05-02T02:23:45.497Z,98.97
2023-05-02T02:24:45.510Z,98.97
2023-05-02T02:25:45.513Z,98.86
2023-05-02T02:26:45.516Z,98.97
2023-05-02T02:27:45.542Z,98.86
2023-05-02T02:28:45.132Z,98.77
2023-05-02T02:29:45.069Z,98.66
2023-05-02T02:30:45.184Z,98.97
2023-05-02T02:31:45.049Z,98.77
2023-05-02T02:32:45.343Z,98.77
2023-05-02T02:33:45.370Z,98.46
2023-05-02T02:34:45.422Z,98.66
2023-05-02T02:35:45.183Z,98.66
2023-05-02T02:36:45.186Z,98.77
2023-05-02T02:37:45.193Z,98.66
2023-05-02T02:38:45.206Z,98.56
2023-05-02T02:39:45.202Z,98.66
2023-05-02T02:40:45.227Z,98.97
2023-05-02T02:41:45.427Z,99.02
2023-05-02T02:42:45.432Z,99.02
2023-05-02T02:43:45.443Z,98.81
2023-05-02T02:44:45.451Z,98.50
2023-05-02T02:45:45.473Z,98.81
2023-05-02T02:46:45.755Z,98.81
2023-05-02T02:47:45.113Z,98.81
2023-05-02T02:48:45.730Z,99.22
2023-05-02T02:49:45.332Z,99.22
2023-05-02T02:50:44.953Z,99.37
2023-05-02T02:51:44.898Z,99.68
2023-05-02T02:52:44.874Z,99.47
2023-05-02T02:53:45.820Z,99.47
2023-05-02T02:54:45.502Z,99.16
2023-05-02T02:55:45.887Z,99.27
2023-05-02T02:56:44.916Z,99.37
2023-05-02T02:57:44.935Z,99.57
2023-05-02T02:58:44.844Z,99.37
2023-05-02T02:59:44.899Z,99.47
2023-05-02T03:00:44.999Z,99.47
2023-05-02T03:01:44.981Z,99.57
2023-05-02T03:02:44.994Z,99.68
2023-05-02T03:03:45.020Z,99.78
2023-05-02T03:04:44.963Z,99.88
2023-05-02T03:05:44.989Z,99.78
2023-05-02T03:06:44.828Z,99.78
2023-05-02T03:07:44.991Z,99.88
2023-05-02T03:08:44.988Z,99.78
2023-05-02T03:09:45.085Z,99.88
2023-05-02T03:10:45.001Z,99.88
2023-05-02T03:11:44.804Z,99.88
2023-05-02T03:12:45.014Z,99.88
2023-05-02T03:13:45.024Z,99.78
2023-05-02T03:14:45.029Z,99.88
2023-05-02T03:15:45.068Z,99.88
2023-05-02T03:16:45.156Z,99.98
2023-05-02T03:17:44.912Z,99.88
2023-05-02T03:18:44.796Z,99.98
2023-05-02T03:19:45.071Z,99.88
2023-05-02T03:20:45.275Z,99.99
2023-05-02T03:21:45.288Z,99.99
2023-05-02T03:22:45.290Z,99.99
2023-05-02T03:23:44.690Z,99.99
2023-05-02T03:24:44.698Z,99.99
2023-05-02T03:25:44.714Z,99.99
2023-05-02T03:26:44.666Z,99.99
2023-05-02T03:27:44.737Z,99.99
2023-05-02T03:28:44.713Z,99.99
2023-05-02T03:29:44.725Z,99.99
2023-05-02T03:30:44.761Z,99.99
2023-05-02T03:31:44.784Z,99.99
2023-05-02T03:32:44.832Z,99.99
2023-05-02T03:33:44.965Z,99.99
2023-05-02T03:34:44.966Z,99.99
2023-05-02T03:35:44.973Z,99.99
2023-05-02T03:36:44.999Z,99.99
2023-05-02T03:37:45.507Z,99.99
2023-05-02T03:38:44.986Z,99.99
2023-05-02T03:39:45.204Z,99.99
2023-05-02T03:40:45.209Z,99.99
2023-05-02T03:41:44.806Z,99.99
2023-05-02T03:42:45.015Z,99.99
2023-05-02T03:43:45.250Z,99.99
2023-05-02T03:44:45.448Z,99.99
2023-05-02T03:45:47.574Z,99.99
2023-05-02T03:46:45.368Z,99.99
2023-05-02T03:47:44.864Z,99.99
2023-05-02T03:48:45.424Z,99.99
2023-05-02T03:49:44.654Z,99.99
2023-05-02T03:50:44.649Z,99.99
2023-05-02T03:51:45.283Z,99.99
2023-05-02T03:52:44.492Z,99.99
2023-05-02T03:53:44.521Z,99.99
2023-05-02T03:54:44.520Z,99.99
2023-05-02T03:55:44.510Z,99.99
2023-05-02T03:56:44.570Z,99.99
2023-05-02T03:57:44.622Z,99.99
2023-05-02T03:58:44.724Z,99.99
2023-05-02T03:59:44.515Z,99.99
2023-05-02T04:00:44.813Z,99.99
2023-05-02T04:01:44.586Z,99.99
2023-05-02T04:02:45.071Z,99.99
2023-05-02T04:03:45.099Z,99.99
2023-05-02T04:04:44.679Z,99.99
2023-05-02T04:05:44.959Z,99.99
2023-05-02T04:06:45.193Z,99.99
2023-05-02T04:07:44.569Z,99.99
2023-05-02T04:08:44.566Z,99.99
2023-05-02T04:09:44.576Z,99.99
2023-05-02T04:10:44.601Z,99.99
2023-05-02T04:11:45.254Z,99.99
2023-05-02T04:12:44.407Z,99.99
2023-05-02T04:13:44.399Z,99.99
2023-05-02T04:14:44.619Z,99.99
2023-05-02T04:15:44.861Z,99.99
2023-05-02T04:16:45.323Z,99.99
2023-05-02T04:17:44.886Z,99.99
2023-05-02T04:18:45.072Z,99.99
2023-05-02T04:19:45.246Z,99.99
2023-05-02T04:20:44.465Z,99.99
2023-05-02T04:21:44.290Z,99.99
2023-05-02T04:22:44.374Z,99.99
2023-05-02T04:23:44.307Z,99.99
2023-05-02T04:24:44.289Z,99.99
2023-05-02T04:25:44.372Z,99.99
2023-05-02T04:26:44.330Z,99.99
2023-05-02T04:27:44.316Z,99.99
2023-05-02T04:28:44.355Z,99.99
2023-05-02T04:29:44.681Z,99.99
2023-05-02T04:30:44.339Z,99.99
2023-05-02T04:31:44.619Z,99.99
2023-05-02T04:32:44.361Z,99.99
2023-05-02T04:33:44.759Z,99.99
2023-05-02T04:34:44.744Z,99.99
2023-05-02T04:35:44.549Z,99.99
2023-05-02T04:36:44.545Z,99.99
2023-05-02T04:37:44.316Z,99.99
2023-05-02T04:38:44.987Z,99.99
2023-05-02T04:39:44.771Z,99.99
2023-05-02T04:40:44.585Z,99.99
2023-05-02T04:41:44.788Z,99.99
2023-05-02T04:42:45.085Z,99.99
2023-05-02T04:43:44.998Z,99.99
2023-05-02T04:44:45.155Z,99.99
2023-05-02T04:45:44.432Z,99.99
2023-05-02T04:46:45.166Z,99.99
2023-05-02T04:47:45.242Z,99.99
2023-05-02T04:48:44.093Z,99.99
2023-05-02T04:49:44.262Z,99.99
2023-05-02T04:50:44.084Z,99.99
2023-05-02T04:51:44.087Z,99.99
2023-05-02T04:52:45.551Z,99.99
2023-05-02T04:53:44.167Z,99.99
2023-05-02T04:54:44.247Z,99.99
2023-05-02T04:55:44.078Z,99.99
2023-05-02T04:56:44.269Z,99.99
2023-05-02T04:57:44.276Z,99.99
2023-05-02T04:58:44.295Z,99.99
2023-05-02T04:59:44.291Z,99.99
2023-05-02T05:00:44.297Z,99.99
2023-05-02T05:01:44.318Z,99.99
2023-05-02T05:02:44.152Z,99.99
2023-05-02T05:03:44.338Z,99.99
2023-05-02T05:04:44.323Z,99.99
2023-05-02T05:05:44.371Z,99.99
2023-05-02T05:06:44.364Z,99.99
2023-05-02T05:07:43.992Z,99.99
2023-05-02T05:08:44.177Z,99.99
2023-05-02T05:09:43.956Z,99.99
2023-05-02T05:10:44.361Z,99.99
2023-05-02T05:11:44.369Z,99.99
2023-05-02T05:12:44.168Z,99.99
2023-05-02T05:13:44.386Z,99.99
2023-05-02T05:14:44.398Z,99.99
2023-05-02T05:15:44.547Z,99.99
2023-05-02T05:16:44.518Z,99.99
2023-05-02T05:17:44.478Z,99.99
2023-05-02T05:18:44.425Z,99.99
2023-05-02T05:19:43.881Z,99.99
2023-05-02T05:20:43.888Z,99.99
2023-05-02T05:21:43.861Z,99.99
2023-05-02T05:22:44.029Z,99.99
2023-05-02T05:23:43.930Z,99.99
2023-05-02T05:24:43.858Z,99.99
2023-05-02T05:25:45.776Z,99.99
2023-05-02T05:26:43.854Z,99.99
2023-05-02T05:27:43.874Z,99.99
2023-05-02T05:28:43.869Z,99.99
2023-05-02T05:29:43.885Z,99.99
2023-05-02T05:30:43.898Z,99.99
2023-05-02T05:31:43.970Z,99.99
2023-05-02T05:32:43.968Z,99.99
2023-05-02T05:33:43.932Z,99.99
2023-05-02T05:34:43.917Z,99.99
2023-05-02T05:35:43.922Z,99.99
2023-05-02T05:36:43.784Z,99.99
2023-05-02T05:37:43.890Z,99.99
2023-05-02T05:38:43.747Z,99.99
2023-05-02T05:39:43.943Z,99.99
2023-05-02T05:40:43.995Z,99.99
2023-05-02T05:41:44.011Z,99.99
2023-05-02T05:42:44.009Z,99.99
2023-05-02T05:43:43.862Z,99.99
2023-05-02T05:44:44.036Z,99.99
2023-05-02T05:45:44.029Z,99.99
2023-05-02T05:46:44.049Z,99.99
2023-05-02T05:47:44.219Z,99.99
2023-05-02T05:48:44.208Z,99.99
2023-05-02T05:49:44.222Z,99.99
2023-05-02T05:50:43.682Z,99.99
2023-05-02T05:51:43.708Z,99.99
2023-05-02T05:52:43.874Z,99.99
2023-05-02T05:53:43.856Z,99.99
2023-05-02T05:54:43.936Z,99.99
2023-05-02T05:55:44.001Z,99.99
2023-05-02T05:56:44.062Z,99.99
2023-05-02T05:57:44.127Z,99.99
2023-05-02T05:58:43.637Z,99.99
2023-05-02T05:59:43.929Z,99.99
2023-05-02T06:00:44.143Z,99.99
2023-05-02T06:01:44.301Z,99.99
2023-05-02T06:02:44.410Z,99.99
2023-05-02T06:03:43.910Z,99.99
2023-05-02T06:04:43.945Z,99.99
2023-05-02T06:05:44.124Z,99.99
2023-05-02T06:06:44.387Z,99.99
2023-05-02T06:07:43.864Z,99.99
2023-05-02T06:08:43.931Z,99.99
2023-05-02T06:09:43.553Z,99.99
2023-05-02T06:10:43.556Z,99.99
2023-05-02T06:11:44.222Z,99.99
2023-05-02T06:12:43.529Z,99.99
2023-05-02T06:13:43.653Z,99.99
2023-05-02T06:14:43.584Z,99.99
2023-05-02T06:15:44.387Z,99.99
2023-05-02T06:16:43.780Z,99.99
2023-05-02T06:17:43.550Z,99.99
2023-05-02T06:18:43.487Z,99.99
2023-05-02T06:19:43.492Z,99.99
2023-05-02T06:20:43.486Z,99.99
2023-05-02T06:21:43.545Z,99.99
2023-05-02T06:22:43.498Z,99.99
2023-05-02T06:23:43.464Z,99.99
2023-05-02T06:24:43.465Z,99.99
2023-05-02T06:25:43.458Z,99.99
2023-05-02T06:26:43.587Z,99.99
2023-05-02T06:27:43.555Z,99.99
2023-05-02T06:28:43.411Z,99.99
2023-05-02T06:29:43.580Z,99.99
2023-05-02T06:30:43.595Z,99.99
2023-05-02T06:31:43.641Z,99.99
2023-05-02T06:32:43.401Z,99.99
2023-05-02T06:33:43.632Z,99.99
2023-05-02T06:34:43.369Z,99.99
2023-05-02T06:35:43.381Z,99.99
2023-05-02T06:36:43.381Z,99.99
2023-05-02T06:37:43.430Z,99.99
2023-05-02T06:38:43.484Z,99.99
2023-05-02T06:39:43.654Z,99.99
2023-05-02T06:40:43.694Z,99.99
2023-05-02T06:41:43.409Z,99.99
2023-05-02T06:42:43.739Z,99.99
2023-05-02T06:43:43.723Z,99.99
2023-05-02T06:44:43.330Z,99.99
2023-05-02T06:45:43.670Z,99.99
2023-05-02T06:46:43.792Z,99.99
2023-05-02T06:47:43.390Z,99.99
2023-05-02T06:48:43.312Z,99.99
2023-05-02T06:49:43.324Z,99.99
2023-05-02T06:50:43.405Z,99.99
2023-05-02T06:51:43.456Z,99.99
2023-05-02T06:52:43.935Z,99.99
2023-05-02T06:53:43.671Z,99.99
2023-05-02T06:54:43.403Z,99.99
2023-05-02T06:55:43.663Z,99.99
2023-05-02T06:56:43.747Z,99.99
2023-05-02T06:57:43.321Z,99.99
2023-05-02T06:58:43.651Z,99.99
2023-05-02T06:59:43.981Z,99.99
2023-05-02T07:00:43.296Z,99.99
2023-05-02T07:01:43.224Z,99.99
2023-05-02T07:02:43.968Z,99.99
2023-05-02T07:03:43.210Z,99.99
2023-05-02T07:04:43.741Z,99.99
2023-05-02T07:05:43.806Z,99.99
2023-05-02T07:06:43.453Z,99.99
2023-05-02T07:07:43.168Z,99.99
2023-05-02T07:08:43.722Z,99.99
2023-05-02T07:09:44.035Z,99.99
2023-05-02T07:10:43.336Z,99.99
2023-05-02T07:11:43.650Z,99.99
2023-05-02T07:12:43.965Z,99.99
2023-05-02T07:13:43.181Z,99.99
2023-05-02T07:14:43.106Z,99.99
2023-05-02T07:15:43.420Z,99.99
2023-05-02T07:16:43.242Z,99.99
2023-05-02T07:17:43.696Z,99.99
2023-05-02T07:18:43.820Z,99.99
2023-05-02T07:19:45.373Z,99.99
2023-05-02T07:20:43.176Z,99.99
2023-05-02T07:21:43.228Z,99.99
2023-05-02T07:22:43.092Z,99.99
2023-05-02T07:23:43.285Z,99.99
2023-05-02T07:24:43.317Z,99.99
2023-05-02T07:25:43.386Z,99.99
2023-05-02T07:26:43.261Z,99.99
2023-05-02T07:27:43.482Z,99.63
2023-05-02T07:28:43.153Z,99.22
2023-05-02T07:29:43.181Z,99.63
2023-05-02T07:30:43.494Z,98.81
2023-05-02T07:31:43.707Z,99.02
2023-05-02T07:32:43.106Z,99.27
2023-05-02T07:33:42.984Z,98.40
2023-05-02T07:34:43.752Z,97.79
2023-05-02T07:35:43.017Z,97.94
2023-05-02T07:36:43.356Z,97.63
2023-05-02T07:37:43.087Z,97.83
2023-05-02T07:38:42.950Z,97.63
2023-05-02T07:39:43.355Z,98.04
2023-05-02T07:40:43.671Z,98.35
2023-05-02T07:41:43.782Z,98.24
2023-05-02T07:42:43.174Z,97.83
2023-05-02T07:43:43.504Z,98.14
2023-05-02T07:44:43.019Z,98.55
2023-05-02T07:45:42.960Z,98.40
2023-05-02T07:46:43.051Z,97.79
2023-05-02T07:47:42.964Z,97.38
2023-05-02T07:48:43.049Z,97.17
2023-05-02T07:49:43.043Z,96.41
2023-05-02T07:50:43.153Z,97.02
2023-05-02T07:51:42.930Z,97.02
2023-05-02T07:52:42.845Z,97.74
2023-05-02T07:53:43.254Z,98.30
2023-05-02T07:54:42.953Z,97.22
2023-05-02T07:55:43.171Z,98.35
2023-05-02T07:56:43.402Z,98.14
2023-05-02T07:57:43.425Z,97.12
2023-05-02T07:58:43.169Z,97.63
2023-05-02T07:59:43.427Z,97.38
2023-05-02T08:00:43.640Z,97.28
2023-05-02T08:01:42.904Z,97.42
2023-05-02T08:02:43.127Z,96.30
2023-05-02T08:03:42.918Z,96.81
2023-05-02T08:04:42.981Z,96.81
2023-05-02T08:05:43.258Z,96.71
2023-05-02T08:06:43.598Z,97.12
2023-05-02T08:07:42.805Z,97.33
2023-05-02T08:08:43.193Z,97.83
2023-05-02T08:09:43.497Z,97.78
2023-05-02T08:10:42.777Z,99.11
2023-05-02T08:11:43.085Z,98.54
2023-05-02T08:12:43.462Z,99.99
2023-05-02T08:13:42.703Z,99.99
2023-05-02T08:14:43.028Z,99.99
2023-05-02T08:15:43.366Z,99.99
2023-05-02T08:16:44.132Z,99.99
2023-05-02T08:17:42.798Z,99.99
2023-05-02T08:18:42.810Z,99.99
2023-05-02T08:19:42.655Z,99.99
2023-05-02T08:20:42.700Z,99.99
2023-05-02T08:21:42.743Z,99.99
2023-05-02T08:22:43.025Z,99.99
2023-05-02T08:23:42.800Z,99.99
2023-05-02T08:24:43.131Z,99.99
2023-05-02T08:25:42.911Z,99.99
2023-05-02T08:26:42.693Z,99.99
2023-05-02T08:27:43.156Z,99.99
2023-05-02T08:28:43.052Z,99.99
2023-05-02T08:29:42.619Z,99.99
2023-05-02T08:30:42.673Z,99.99
2023-05-02T08:31:43.245Z,99.99
2023-05-02T08:32:43.269Z,99.99
2023-05-02T08:33:42.748Z,99.99
2023-05-02T08:34:42.658Z,99.99
2023-05-02T08:35:43.040Z,99.99
2023-05-02T08:36:42.769Z,99.99
2023-05-02T08:37:42.622Z,99.99
2023-05-02T08:38:43.415Z,99.99
2023-05-02T08:39:42.690Z,99.99
2023-05-02T08:40:43.396Z,99.99
2023-05-02T08:41:43.326Z,99.99
2023-05-02T08:42:42.612Z,99.99
2023-05-02T08:43:42.929Z,99.99
2023-05-02T08:44:42.498Z,99.99
2023-05-02T08:45:42.520Z,99.99
2023-05-02T08:46:42.523Z,99.99
2023-05-02T08:47:43.945Z,99.99
2023-05-02T08:48:42.457Z,99.99
2023-05-02T08:49:42.712Z,99.99
2023-05-02T08:50:42.793Z,99.99
2023-05-02T08:51:42.831Z,99.99
2023-05-02T08:52:42.458Z,99.99
2023-05-02T08:53:42.936Z,99.99
2023-05-02T08:54:43.008Z,99.99
2023-05-02T08:55:42.975Z,99.99
2023-05-02T08:56:42.440Z,99.99
2023-05-02T08:57:42.457Z,99.99
2023-05-02T08:58:42.553Z,99.99
2023-05-02T08:59:42.851Z,99.99
2023-05-02T09:00:42.532Z,99.99
2023-05-02T09:01:42.469Z,99.99
2023-05-02T09:02:42.563Z,99.99
2023-05-02T09:03:43.116Z,99.99
2023-05-02T09:04:43.890Z,99.99
2023-05-02T09:05:42.371Z,99.99
2023-05-02T09:06:42.413Z,99.99
2023-05-02T09:07:42.370Z,99.99
2023-05-02T09:08:42.603Z,99.99
2023-05-02T09:09:42.389Z,99.99
2023-05-02T09:10:42.409Z,99.99
2023-05-02T09:11:42.423Z,99.99
2023-05-02T09:12:42.292Z,99.99
2023-05-02T09:13:42.642Z,99.99
2023-05-02T09:14:42.388Z,99.99
2023-05-02T09:15:42.454Z,99.99
2023-05-02T09:16:42.352Z,99.99
2023-05-02T09:17:43.866Z,99.99
2023-05-02T09:18:42.293Z,99.99
2023-05-02T09:19:42.254Z,99.99
2023-05-02T09:20:42.317Z,99.99
2023-05-02T09:21:42.329Z,99.99
2023-05-02T09:22:42.381Z,99.99
2023-05-02T09:23:42.230Z,99.99
2023-05-02T09:24:42.261Z,99.99
2023-05-02T09:25:42.429Z,99.99
2023-05-02T09:26:42.486Z,99.99
2023-05-02T09:27:42.192Z,99.99
2023-05-02T09:28:42.667Z,99.99
2023-05-02T09:29:42.723Z,99.99
2023-05-02T09:30:42.397Z,99.99
2023-05-02T09:32:42.738Z,99.99
2023-05-02T09:33:42.287Z,99.99
2023-05-02T09:34:42.275Z,99.99
2023-05-02T09:35:42.735Z,99.99
2023-05-02T09:36:42.207Z,99.99
2023-05-02T09:37:42.142Z,99.99
2023-05-02T09:38:42.775Z,99.99
2023-05-02T09:39:42.227Z,99.99
2023-05-02T09:40:42.451Z,99.99
2023-05-02T09:41:42.102Z,99.99
2023-05-02T09:42:42.165Z,99.27
2023-05-02T09:43:42.141Z,99.17
2023-05-02T09:44:42.137Z,99.68
2023-05-02T09:45:42.289Z,99.99
2023-05-02T09:46:42.356Z,99.48
2023-05-02T09:47:43.614Z,98.76
2023-05-02T09:48:42.188Z,98.14
2023-05-02T09:49:42.217Z,98.04
2023-05-02T09:50:42.215Z,98.35
2023-05-02T09:51:42.219Z,98.45
2023-05-02T09:52:42.067Z,98.92
2023-05-02T09:53:42.262Z,97.73
2023-05-02T09:54:42.269Z,97.89
2023-05-02T09:55:43.494Z,98.67
2023-05-02T09:56:42.034Z,96.72
2023-05-02T09:57:42.317Z,95.90
2023-05-02T09:58:41.999Z,95.90
2023-05-02T09:59:41.984Z,97.44
2023-05-02T10:00:42.021Z,97.13
2023-05-02T10:01:42.515Z,96.41
2023-05-02T10:02:41.971Z,95.64
2023-05-02T10:03:42.012Z,96.56
2023-05-02T10:04:42.116Z,96.10
2023-05-02T10:05:42.144Z,95.84
2023-05-02T10:06:42.461Z,94.71
2023-05-02T10:07:42.250Z,96.04
2023-05-02T10:08:42.046Z,96.77
2023-05-02T10:09:42.381Z,97.48
2023-05-02T10:10:41.931Z,96.25
2023-05-02T10:11:41.977Z,95.64
2023-05-02T10:12:42.036Z,96.51
2023-05-02T10:13:41.893Z,96.31
2023-05-02T10:14:41.913Z,96.51
2023-05-02T10:15:41.936Z,96.15
2023-05-02T10:16:41.871Z,97.79
2023-05-02T10:17:41.856Z,97.89
2023-05-02T10:18:41.882Z,98.82
2023-05-02T10:19:41.899Z,99.08
2023-05-02T10:20:41.893Z,98.97
2023-05-02T10:21:42.009Z,99.08
2023-05-02T10:22:41.949Z,99.22
2023-05-02T10:23:42.083Z,99.12
2023-05-02T10:24:41.969Z,99.63
2023-05-02T10:25:42.198Z,99.99
2023-05-02T10:26:42.206Z,99.99
2023-05-02T10:27:41.915Z,99.99
2023-05-02T10:28:42.208Z,99.99
2023-05-02T10:29:42.355Z,99.99
2023-05-02T10:30:41.783Z,99.99
2023-05-02T10:31:42.955Z,99.99
2023-05-02T10:32:41.826Z,99.99
2023-05-02T10:33:41.770Z,99.99
2023-05-02T10:34:43.210Z,99.99
2023-05-02T10:35:41.820Z,99.50
2023-05-02T10:36:41.835Z,97.60
2023-05-02T10:37:42.637Z,95.86
2023-05-02T10:38:41.876Z,96.98
2023-05-02T10:39:41.736Z,98.37
2023-05-02T10:40:41.785Z,98.68
2023-05-02T10:41:41.735Z,97.65
2023-05-02T10:42:41.704Z,97.45
2023-05-02T10:43:41.688Z,97.20
2023-05-02T10:44:41.951Z,96.17
2023-05-02T10:45:42.032Z,93.35
2023-05-02T10:46:41.835Z,93.45
2023-05-02T10:47:42.057Z,92.83
2023-05-02T10:48:41.993Z,93.29
2023-05-02T10:49:41.646Z,94.32
2023-05-02T10:50:41.966Z,94.32
2023-05-02T10:51:42.052Z,93.90
2023-05-02T10:52:41.887Z,92.68
2023-05-02T10:53:41.883Z,94.15
2023-05-02T10:54:42.063Z,93.13
2023-05-02T10:55:41.605Z,93.54
2023-05-02T10:56:41.806Z,93.19
2023-05-02T10:57:41.628Z,92.98
2023-05-02T10:58:41.591Z,91.91
2023-05-02T10:59:41.728Z,91.91
2023-05-02T11:00:42.091Z,92.69
2023-05-02T11:01:42.175Z,91.97
2023-05-02T11:02:41.756Z,92.24
2023-05-02T11:03:43.010Z,91.11
2023-05-02T11:04:42.202Z,91.52
2023-05-02T11:05:41.522Z,88.86
2023-05-02T11:06:41.929Z,90.39
2023-05-02T11:07:41.544Z,90.09
2023-05-02T11:08:41.500Z,90.84
2023-05-02T11:09:41.566Z,91.63
2023-05-02T11:10:41.492Z,91.11
2023-05-02T11:11:41.652Z,90.91
2023-05-02T11:12:41.489Z,89.78
2023-05-02T11:13:41.762Z,90.19
2023-05-02T11:14:41.822Z,89.89
2023-05-02T11:15:41.646Z,89.37
2023-05-02T11:16:41.509Z,89.98
2023-05-02T11:17:41.551Z,91.11
2023-05-02T11:18:41.471Z,89.78
2023-05-02T11:19:41.469Z,89.68
2023-05-02T11:20:41.467Z,89.68
2023-05-02T11:21:41.513Z,90.39
2023-05-02T11:22:42.454Z,88.04
2023-05-02T11:23:41.553Z,88.39
2023-05-02T11:24:41.443Z,88.29
2023-05-02T11:25:41.571Z,88.29
2023-05-02T11:26:41.604Z,89.21
2023-05-02T11:27:41.421Z,87.77
2023-05-02T11:28:42.834Z,87.77
2023-05-02T11:29:41.670Z,89.42
2023-05-02T11:30:41.498Z,90.03
2023-05-02T11:31:41.589Z,88.59
2023-05-02T11:32:41.748Z,86.99
2023-05-02T11:33:42.064Z,87.98
2023-05-02T11:34:41.454Z,86.99
2023-05-02T11:35:41.344Z,85.56
2023-05-02T11:36:42.136Z,85.97
2023-05-02T11:37:41.840Z,86.58
2023-05-02T11:38:41.290Z,87.30
2023-05-02T11:41:07.526Z,87.37
2023-05-02T11:42:07.441Z,86.79
2023-05-02T11:43:07.606Z,86.48
2023-05-02T11:44:07.563Z,85.87
2023-05-02T11:45:07.705Z,86.79
2023-05-02T11:46:07.386Z,84.74
2023-05-02T11:47:07.379Z,84.74
2023-05-02T11:48:07.637Z,84.64
2023-05-02T11:49:09.205Z,85.72
2023-05-02T11:50:07.823Z,87.16
2023-05-02T11:51:07.532Z,87.32
2023-05-02T11:52:07.962Z,85.99
2023-05-02T11:53:07.949Z,84.05
2023-05-02T11:54:07.743Z,84.87
2023-05-02T11:55:09.714Z,83.33
2023-05-02T11:56:08.129Z,84.15
2023-05-02T11:57:07.135Z,81.90
2023-05-02T11:58:07.169Z,83.09
2023-05-02T11:59:07.230Z,82.17
2023-05-02T12:00:07.259Z,81.15
2023-05-02T12:01:08.241Z,81.45
2023-05-02T12:02:07.447Z,82.23
2023-05-02T12:03:07.517Z,82.23
2023-05-02T12:04:07.748Z,82.81
2023-05-02T12:05:07.220Z,82.60
2023-05-02T12:06:07.658Z,82.97
2023-05-02T12:07:08.087Z,83.28
2023-05-02T12:08:07.206Z,83.34
2023-05-02T12:09:07.248Z,83.24
2023-05-02T12:10:07.359Z,80.01
2023-05-02T12:11:07.365Z,80.35
2023-05-02T12:12:07.452Z,81.38
2023-05-02T12:13:08.893Z,82.70
2023-05-02T12:14:07.530Z,80.66
2023-05-02T12:15:07.586Z,81.01
2023-05-02T12:16:07.635Z,80.69
2023-05-02T12:17:07.681Z,81.31
2023-05-02T12:18:07.788Z,79.88
2023-05-02T12:19:07.796Z,80.90
2023-05-02T12:20:07.895Z,81.41
2023-05-02T12:21:07.923Z,79.57
2023-05-02T12:22:07.860Z,80.12
2023-05-02T12:23:08.039Z,79.41
2023-05-02T12:24:07.405Z,79.20
2023-05-02T12:25:07.817Z,79.71
2023-05-02T12:26:07.310Z,80.49
2023-05-02T12:27:07.874Z,80.08
2023-05-02T12:28:07.791Z,79.27
2023-05-02T12:29:07.923Z,77.94
2023-05-02T12:30:07.852Z,78.55
2023-05-02T12:31:07.783Z,78.34
2023-05-02T12:32:07.903Z,78.04
2023-05-02T12:33:07.955Z,78.86
2023-05-02T12:34:07.725Z,78.20
2023-05-02T12:35:07.884Z,77.59
2023-05-02T12:36:07.785Z,77.76
2023-05-02T12:37:06.855Z,78.48
2023-05-02T12:38:06.885Z,76.64
2023-05-02T12:39:06.891Z,77.31
2023-05-02T12:40:06.984Z,75.37
2023-05-02T12:41:07.047Z,77.18
2023-05-02T12:42:07.080Z,74.83
2023-05-02T12:43:06.808Z,74.32
2023-05-02T12:44:07.234Z,75.61
2023-05-02T12:45:07.250Z,73.27
2023-05-02T12:46:07.301Z,72.86
2023-05-02T12:47:07.440Z,74.18
2023-05-02T12:48:07.461Z,76.12
2023-05-02T12:49:07.499Z,73.36
2023-05-02T12:50:07.541Z,76.73
2023-05-02T12:51:07.120Z,78.16
2023-05-02T12:52:06.893Z,75.95
2023-05-02T12:53:06.886Z,78.71
2023-05-02T12:54:06.788Z,77.18
2023-05-02T12:55:06.888Z,76.09